createdAt,value
2022-11-26T00:01:14.654Z,96418.47
2022-11-26T00:03:43.830Z,96411.94
2022-11-26T00:06:26.225Z,96417.63
2022-11-26T00:08:54.207Z,96418.28
2022-11-26T00:11:21.875Z,96420.09
2022-11-26T00:13:49.844Z,96424.13
2022-11-26T00:16:17.638Z,96432.78
2022-11-26T00:18:45.774Z,96439.19
2022-11-26T00:21:21.431Z,96442.06
2022-11-26T00:23:49.423Z,96437.25
2022-11-26T00:26:20.066Z,96440.69
2022-11-26T00:28:52.443Z,96448.09
2022-11-26T00:31:20.225Z,96445.56
2022-11-26T00:33:48.927Z,96455.22
2022-11-26T00:36:25.385Z,96449.44
2022-11-26T00:38:56.447Z,96450.28
2022-11-26T00:41:26.352Z,96452.44
2022-11-26T00:43:54.347Z,96453.88
2022-11-26T00:46:22.969Z,96450.81
2022-11-26T00:48:52.218Z,96463.41
2022-11-26T00:51:23.978Z,96467.84
2022-11-26T00:53:55.790Z,96473.78
2022-11-26T00:56:24.398Z,96473.47
2022-11-26T00:58:52.548Z,96471.38
2022-11-26T01:01:24.473Z,96471.53
2022-11-26T01:03:53.017Z,96471.81
2022-11-26T01:06:24.148Z,96465.78
2022-11-26T01:08:52.207Z,96475.31
2022-11-26T01:11:23.397Z,96468.69
2022-11-26T01:13:53.609Z,96466.63
2022-11-26T01:16:25.229Z,96471.88
2022-11-26T01:18:54.291Z,96476.84
2022-11-26T01:21:24.253Z,96480.59
2022-11-26T01:23:52.170Z,96486.81
2022-11-26T01:26:24.617Z,96494.69
2022-11-26T01:28:52.708Z,96492.06
2022-11-26T01:31:22.486Z,96495.06
2022-11-26T01:33:50.745Z,96498.81
2022-11-26T01:36:27.914Z,96505.31
2022-11-26T01:38:57.472Z,96504.88
2022-11-26T01:41:42.784Z,96508.88
2022-11-26T01:44:17.444Z,96507.22
2022-11-26T01:46:45.449Z,96508.16
2022-11-26T01:49:22.433Z,96500.69
2022-11-26T01:51:57.372Z,96508.72
2022-11-26T01:54:25.825Z,96509.13
2022-11-26T01:56:57.116Z,96512.03
2022-11-26T01:59:29.024Z,96514.97
2022-11-26T02:01:59.791Z,96521.84
2022-11-26T02:04:32.326Z,96521.19
2022-11-26T02:07:01.847Z,96517.97
2022-11-26T02:09:30.422Z,96520.75
2022-11-26T02:11:58.331Z,96516.03
2022-11-26T02:14:29.598Z,96511.91
2022-11-26T02:17:11.165Z,96512.19
2022-11-26T02:20:24.289Z,96518.25
2022-11-26T02:23:12.612Z,96521.19
2022-11-26T02:26:04.225Z,96518.25
2022-11-26T02:28:53.583Z,96521.84
2022-11-26T02:31:28.106Z,96519.78
2022-11-26T02:34:06.449Z,96522.97
2022-11-26T02:36:39.318Z,96519.38
2022-11-26T02:39:15.877Z,96526.69
2022-11-26T02:41:46.185Z,96519.38
2022-11-26T02:44:16.212Z,96524.91
2022-11-26T02:46:48.852Z,96521.00
2022-11-26T02:49:21.881Z,96528.47
2022-11-26T02:51:53.982Z,96537.53
2022-11-26T02:54:24.763Z,96536.13
2022-11-26T02:56:53.083Z,96540.41
2022-11-26T02:59:22.077Z,96537.78
2022-11-26T03:01:56.954Z,96544.97
2022-11-26T03:04:28.572Z,96549.88
2022-11-26T03:06:59.168Z,96552.31
2022-11-26T03:09:26.820Z,96567.19
2022-11-26T03:11:54.512Z,96561.69
2022-11-26T03:14:22.856Z,96557.69
2022-11-26T03:16:51.955Z,96562.66
2022-11-26T03:19:20.277Z,96566.66
2022-11-26T03:21:47.924Z,96567.34
2022-11-26T03:24:16.221Z,96579.53
2022-11-26T03:26:43.942Z,96574.19
2022-11-26T03:29:11.907Z,96582.75
2022-11-26T03:31:39.622Z,96573.75
2022-11-26T03:34:08.976Z,96578.47
2022-11-26T03:36:36.859Z,96575.84
2022-11-26T03:39:04.952Z,96581.50
2022-11-26T03:41:33.166Z,96579.28
2022-11-26T03:44:01.051Z,96589.50
2022-11-26T03:46:29.050Z,96603.31
2022-11-26T03:48:56.712Z,96595.31
2022-11-26T03:51:26.596Z,96591.59
2022-11-26T03:53:54.300Z,96588.44
2022-11-26T03:56:21.940Z,96600.00
2022-11-26T03:58:49.693Z,96600.28
2022-11-26T04:01:17.699Z,96595.88
2022-11-26T04:03:45.407Z,96608.84
2022-11-26T04:06:13.757Z,96599.19
2022-11-26T04:08:42.756Z,96601.94
2022-11-26T04:11:10.646Z,96612.41
2022-11-26T04:13:38.373Z,96615.88
2022-11-26T04:16:07.261Z,96611.06
2022-11-26T04:18:35.167Z,96621.25
2022-11-26T04:21:02.875Z,96625.69
2022-11-26T04:23:30.549Z,96625.13
2022-11-26T04:25:59.887Z,96625.66
2022-11-26T04:28:27.538Z,96631.16
2022-11-26T04:30:55.188Z,96636.31
2022-11-26T04:33:22.934Z,96631.88
2022-11-26T04:35:51.512Z,96636.28
2022-11-26T04:38:24.203Z,96643.75
2022-11-26T04:40:53.719Z,96646.25
2022-11-26T04:43:22.764Z,96640.41
2022-11-26T04:45:50.992Z,96650.88
2022-11-26T04:48:18.702Z,96649.69
2022-11-26T04:50:46.686Z,96650.88
2022-11-26T04:53:14.376Z,96653.81
2022-11-26T04:55:42.344Z,96652.66
2022-11-26T04:58:09.983Z,96659.31
2022-11-26T05:00:40.221Z,96654.66
2022-11-26T05:03:08.014Z,96662.84
2022-11-26T05:05:36.290Z,96665.13
2022-11-26T05:08:04.065Z,96672.16
2022-11-26T05:10:32.182Z,96674.91
2022-11-26T05:12:59.841Z,96685.47
2022-11-26T05:15:28.078Z,96681.97
2022-11-26T05:17:57.060Z,96684.97
2022-11-26T05:20:25.615Z,96685.50
2022-11-26T05:22:53.268Z,96687.50
2022-11-26T05:25:21.924Z,96689.47
2022-11-26T05:27:50.047Z,96692.75
2022-11-26T05:30:17.779Z,96694.16
2022-11-26T05:32:45.807Z,96694.72
2022-11-26T05:35:14.837Z,96700.78
2022-11-26T05:37:43.156Z,96698.94
2022-11-26T05:40:12.292Z,96700.00
2022-11-26T05:42:40.519Z,96701.69
2022-11-26T05:45:09.288Z,96694.84
2022-11-26T05:47:37.239Z,96696.91
2022-11-26T05:50:05.660Z,96708.41
2022-11-26T05:52:35.397Z,96702.84
2022-11-26T05:55:03.094Z,96701.47
2022-11-26T05:57:30.795Z,96695.63
2022-11-26T05:59:58.461Z,96706.34
2022-11-26T06:02:27.183Z,96711.31
2022-11-26T06:04:54.992Z,96702.50
2022-11-26T06:07:23.014Z,96704.88
2022-11-26T06:09:52.069Z,96709.28
2022-11-26T06:12:20.144Z,96714.13
2022-11-26T06:14:48.065Z,96714.69
2022-11-26T06:17:16.560Z,96713.59
2022-11-26T06:19:44.245Z,96719.41
2022-11-26T06:22:11.973Z,96717.97
2022-11-26T06:24:40.737Z,96715.50
2022-11-26T06:27:10.254Z,96724.38
2022-11-26T06:29:37.918Z,96720.50
2022-11-26T06:32:06.081Z,96719.53
2022-11-26T06:34:33.792Z,96722.00
2022-11-26T06:37:01.865Z,96726.03
2022-11-26T06:39:29.645Z,96726.91
2022-11-26T06:41:57.656Z,96731.78
2022-11-26T06:44:27.247Z,96730.81
2022-11-26T06:46:55.483Z,96733.69
2022-11-26T06:49:23.147Z,96743.22
2022-11-26T06:51:51.491Z,96742.53
2022-11-26T06:54:19.226Z,96744.03
2022-11-26T06:56:48.011Z,96755.34
2022-11-26T06:59:16.160Z,96749.72
2022-11-26T07:01:45.990Z,96758.03
2022-11-26T07:04:13.798Z,96758.34
2022-11-26T07:06:43.596Z,96760.28
2022-11-26T07:09:12.221Z,96764.97
2022-11-26T07:11:41.616Z,96763.88
2022-11-26T07:14:09.469Z,96764.19
2022-11-26T07:16:38.013Z,96763.94
2022-11-26T07:19:07.133Z,96771.41
2022-11-26T07:21:35.091Z,96766.72
2022-11-26T07:24:03.387Z,96769.78
2022-11-26T07:26:31.073Z,96767.59
2022-11-26T07:28:59.066Z,96769.00
2022-11-26T07:31:26.832Z,96763.75
2022-11-26T07:33:54.870Z,96782.56
2022-11-26T07:36:25.890Z,96783.50
2022-11-26T07:38:54.886Z,96781.69
2022-11-26T07:41:22.678Z,96789.69
2022-11-26T07:43:50.877Z,96793.88
2022-11-26T07:46:21.531Z,96793.88
2022-11-26T07:48:50.349Z,96796.09
2022-11-26T07:51:19.585Z,96802.59
2022-11-26T07:53:49.868Z,96811.31
2022-11-26T07:56:18.426Z,96804.13
2022-11-26T07:58:46.794Z,96813.38
2022-11-26T08:01:16.802Z,96805.25
2022-11-26T08:03:47.508Z,96816.91
2022-11-26T08:06:20.189Z,96819.94
2022-11-26T08:08:50.581Z,96818.44
2022-11-26T08:11:20.621Z,96819.41
2022-11-26T08:13:49.661Z,96819.13
2022-11-26T08:16:17.457Z,96817.47
2022-11-26T08:18:45.733Z,96822.75
2022-11-26T08:21:13.435Z,96827.59
2022-11-26T08:23:41.720Z,96832.28
2022-11-26T08:29:02.053Z,96828.88
2022-11-26T08:31:29.972Z,96826.38
2022-11-26T08:33:59.190Z,96830.25
2022-11-26T08:36:27.315Z,96835.50
2022-11-26T08:38:55.553Z,96832.75
2022-11-26T08:41:25.010Z,96837.31
2022-11-26T08:44:08.944Z,96835.78
2022-11-26T08:46:38.270Z,96840.50
2022-11-26T08:49:07.573Z,96843.56
2022-11-26T08:51:35.533Z,96850.72
2022-11-26T08:54:03.496Z,96857.53
2022-11-26T08:56:32.544Z,96857.59
2022-11-26T08:59:00.577Z,96859.25
2022-11-26T09:01:29.665Z,96864.16
2022-11-26T09:03:59.962Z,96860.50
2022-11-26T09:06:29.684Z,96855.41
2022-11-26T09:09:17.840Z,96867.88
2022-11-26T09:11:49.964Z,96868.13
2022-11-26T09:14:20.130Z,96874.44
2022-11-26T09:16:48.226Z,96880.13
2022-11-26T09:19:16.874Z,96881.81
2022-11-26T09:21:45.367Z,96883.03
2022-11-26T09:24:13.315Z,96890.28
2022-11-26T09:26:41.577Z,96896.28
2022-11-26T09:29:13.752Z,96897.75
2022-11-26T09:32:00.718Z,96895.53
2022-11-26T09:34:29.771Z,96900.53
2022-11-26T09:36:57.423Z,96909.38
2022-11-26T09:39:25.821Z,96906.06
2022-11-26T09:42:00.808Z,96902.72
2022-11-26T09:44:56.393Z,96901.56
2022-11-26T09:47:27.787Z,96894.31
2022-11-26T09:50:04.573Z,96891.38
2022-11-26T09:52:38.176Z,96902.44
2022-11-26T09:55:16.031Z,96886.69
2022-11-26T09:57:47.682Z,96887.41
2022-11-26T10:00:26.969Z,96893.50
2022-11-26T10:02:56.086Z,96888.81
2022-11-26T10:05:38.612Z,96886.31
2022-11-26T10:08:23.064Z,96891.72
2022-11-26T10:11:01.127Z,96878.16
2022-11-26T10:13:41.604Z,96877.59
2022-11-26T10:16:21.168Z,96873.25
2022-11-26T10:18:59.645Z,96874.88
2022-11-26T10:21:57.033Z,96872.41
2022-11-26T10:24:26.666Z,96874.78
2022-11-26T10:26:56.115Z,96872.44
2022-11-26T10:29:25.819Z,96872.19
2022-11-26T10:32:00.042Z,96869.34
2022-11-26T10:34:39.447Z,96864.84
2022-11-26T10:37:07.709Z,96863.16
2022-11-26T10:39:35.452Z,96871.94
2022-11-26T10:42:05.755Z,96861.97
2022-11-26T10:44:37.313Z,96866.47
2022-11-26T10:47:26.412Z,96867.13
2022-11-26T10:49:55.997Z,96862.56
2022-11-26T10:52:26.975Z,96863.13
2022-11-26T10:55:27.252Z,96858.97
2022-11-26T10:57:58.888Z,96855.56
2022-11-26T11:00:33.536Z,96852.88
2022-11-26T11:03:04.829Z,96854.66
2022-11-26T11:05:34.785Z,96853.63
2022-11-26T11:08:02.556Z,96848.13
2022-11-26T11:10:30.415Z,96854.41
2022-11-26T11:13:12.087Z,96852.41
2022-11-26T11:15:42.189Z,96853.63
2022-11-26T11:18:19.520Z,96846.69
2022-11-26T11:20:55.582Z,96858.25
2022-11-26T11:23:39.921Z,96850.94
2022-11-26T11:26:14.105Z,96852.16
2022-11-26T11:28:49.310Z,96856.22
2022-11-26T11:31:19.618Z,96853.75
2022-11-26T11:33:49.438Z,96848.97
2022-11-26T11:36:22.105Z,96850.66
2022-11-26T11:38:52.323Z,96847.13
2022-11-26T11:41:27.790Z,96848.91
2022-11-26T11:44:00.963Z,96852.66
2022-11-26T11:47:11.796Z,96852.22
2022-11-26T11:49:51.533Z,96857.03
2022-11-26T11:52:31.353Z,96850.41
2022-11-26T11:55:05.172Z,96848.00
2022-11-26T11:57:46.800Z,96851.16
2022-11-26T12:00:19.554Z,96850.03
2022-11-26T12:03:10.334Z,96850.56
2022-11-26T12:05:49.716Z,96851.38
2022-11-26T12:08:28.003Z,96852.03
2022-11-26T12:11:06.235Z,96849.72
2022-11-26T12:13:42.531Z,96844.78
2022-11-26T12:16:15.188Z,96848.25
2022-11-26T12:18:49.080Z,96848.47
2022-11-26T12:21:35.895Z,96838.84
2022-11-26T12:24:10.375Z,96849.25
2022-11-26T12:26:41.706Z,96847.69
2022-11-26T12:29:14.406Z,96848.38
2022-11-26T12:31:46.735Z,96851.69
2022-11-26T12:34:23.292Z,96850.22
2022-11-26T12:36:57.224Z,96858.00
2022-11-26T12:39:35.832Z,96854.06
2022-11-26T12:42:09.195Z,96853.47
2022-11-26T12:44:40.853Z,96843.41
2022-11-26T12:47:17.754Z,96840.28
2022-11-26T12:49:56.683Z,96848.94
2022-11-26T12:52:36.731Z,96837.28
2022-11-26T12:55:17.213Z,96833.19
2022-11-26T12:57:49.798Z,96839.34
2022-11-26T13:00:25.169Z,96841.81
2022-11-26T13:02:55.016Z,96847.78
2022-11-26T13:05:28.846Z,96840.00
2022-11-26T13:08:17.425Z,96833.59
2022-11-26T13:11:00.736Z,96827.66
2022-11-26T13:13:40.341Z,96829.47
2022-11-26T13:16:13.277Z,96829.13
2022-11-26T13:18:47.288Z,96832.25
2022-11-26T13:21:31.988Z,96826.91
2022-11-26T13:24:19.369Z,96825.56
2022-11-26T13:27:04.585Z,96818.53
2022-11-26T13:29:51.826Z,96825.34
2022-11-26T13:32:47.280Z,96829.16
2022-11-26T13:35:25.106Z,96831.69
2022-11-26T13:38:15.168Z,96832.53
2022-11-26T13:41:03.352Z,96831.97
2022-11-26T13:44:04.332Z,96832.59
2022-11-26T13:46:36.823Z,96834.03
2022-11-26T13:49:13.462Z,96833.28
2022-11-26T13:51:47.356Z,96831.38
2022-11-26T13:54:21.007Z,96835.22
2022-11-26T13:56:57.075Z,96833.47
2022-11-26T13:59:28.793Z,96839.41
2022-11-26T14:01:56.946Z,96835.69
2022-11-26T14:04:52.826Z,96831.81
2022-11-26T14:07:21.784Z,96833.69
2022-11-26T14:09:53.503Z,96824.75
2022-11-26T14:12:24.170Z,96830.25
2022-11-26T14:14:52.511Z,96825.81
2022-11-26T14:17:22.923Z,96829.72
2022-11-26T14:20:11.751Z,96813.41
2022-11-26T14:22:40.098Z,96827.97
2022-11-26T14:25:12.416Z,96824.94
2022-11-26T14:27:52.933Z,96821.94
2022-11-26T14:30:23.795Z,96827.81
2022-11-26T14:33:15.976Z,96831.31
2022-11-26T14:35:55.385Z,96838.28
2022-11-26T14:38:26.302Z,96829.31
2022-11-26T14:40:58.907Z,96836.16
2022-11-26T14:43:29.673Z,96843.50
2022-11-26T14:46:04.756Z,96840.44
2022-11-26T14:48:35.079Z,96835.84
2022-11-26T14:51:04.660Z,96843.59
2022-11-26T14:53:35.092Z,96850.00
2022-11-26T14:56:04.446Z,96839.50
2022-11-26T14:58:37.491Z,96839.00
2022-11-26T15:01:19.639Z,96841.13
2022-11-26T15:03:59.182Z,96851.41
2022-11-26T15:06:29.592Z,96845.78
2022-11-26T15:09:12.163Z,96847.00
2022-11-26T15:11:44.737Z,96843.84
2022-11-26T15:14:22.308Z,96849.94
2022-11-26T15:16:56.735Z,96846.44
2022-11-26T15:19:25.271Z,96846.44
2022-11-26T15:21:53.086Z,96845.75
2022-11-26T15:24:21.691Z,96844.94
2022-11-26T15:26:49.397Z,96852.66
2022-11-26T15:29:41.469Z,96848.75
2022-11-26T15:32:28.241Z,96846.50
2022-11-26T15:34:58.469Z,96850.22
2022-11-26T15:37:27.036Z,96848.63
2022-11-26T15:40:20.635Z,96842.53
2022-11-26T15:42:49.998Z,96849.38
2022-11-26T15:45:22.509Z,96845.50
2022-11-26T15:47:53.723Z,96848.91
2022-11-26T15:50:29.841Z,96856.16
2022-11-26T15:53:01.701Z,96854.44
2022-11-26T15:55:33.467Z,96847.47
2022-11-26T15:58:04.586Z,96844.66
2022-11-26T16:00:37.868Z,96847.91
2022-11-26T16:03:26.833Z,96857.50
2022-11-26T16:05:55.767Z,96853.28
2022-11-26T16:08:26.369Z,96858.56
2022-11-26T16:10:57.022Z,96866.59
2022-11-26T16:13:28.791Z,96862.31
2022-11-26T16:16:02.440Z,96856.16
2022-11-26T16:18:37.546Z,96858.03
2022-11-26T16:21:09.105Z,96856.03
2022-11-26T16:23:36.916Z,96848.69
2022-11-26T16:26:15.264Z,96849.84
2022-11-26T16:28:43.183Z,96848.06
2022-11-26T16:31:13.343Z,96841.66
2022-11-26T16:33:41.337Z,96838.34
2022-11-26T16:36:21.904Z,96836.56
2022-11-26T16:38:50.146Z,96847.84
2022-11-26T16:41:20.082Z,96846.63
2022-11-26T16:43:47.835Z,96838.56
2022-11-26T16:46:19.713Z,96837.19
2022-11-26T16:48:48.717Z,96846.22
2022-11-26T16:51:17.012Z,96850.72
2022-11-26T16:53:44.737Z,96839.66
2022-11-26T16:56:21.219Z,96840.59
2022-11-26T16:58:49.904Z,96838.81
2022-11-26T17:01:19.832Z,96844.75
2022-11-26T17:03:47.571Z,96856.19
2022-11-26T17:06:19.132Z,96853.50
2022-11-26T17:08:49.680Z,96851.59
2022-11-26T17:11:18.308Z,96855.97
2022-11-26T17:13:45.966Z,96841.84
2022-11-26T17:16:16.802Z,96852.28
2022-11-26T17:18:46.251Z,96854.78
2022-11-26T17:21:14.289Z,96847.72
2022-11-26T17:23:42.176Z,96844.63
2022-11-26T17:26:20.471Z,96840.69
2022-11-26T17:28:48.315Z,96840.69
2022-11-26T17:31:16.897Z,96839.41
2022-11-26T17:33:46.082Z,96833.22
2022-11-26T17:36:20.116Z,96840.84
2022-11-26T17:38:48.809Z,96836.22
2022-11-26T17:41:18.423Z,96835.16
2022-11-26T17:43:46.119Z,96838.00
2022-11-26T17:46:19.781Z,96833.97
2022-11-26T17:48:49.986Z,96836.06
2022-11-26T17:51:19.937Z,96835.84
2022-11-26T17:53:47.605Z,96840.22
2022-11-26T17:56:18.133Z,96846.28
2022-11-26T17:58:46.092Z,96842.13
2022-11-26T18:01:14.950Z,96847.38
2022-11-26T18:03:42.769Z,96851.94
2022-11-26T18:06:15.962Z,96847.59
2022-11-26T18:08:44.046Z,96862.59
2022-11-26T18:11:12.477Z,96848.41
2022-11-26T18:13:40.433Z,96856.25
2022-11-26T18:16:08.287Z,96853.00
2022-11-26T18:18:35.992Z,96854.06
2022-11-26T18:21:03.653Z,96852.94
2022-11-26T18:23:32.678Z,96859.34
2022-11-26T18:26:00.336Z,96860.22
2022-11-26T18:28:28.978Z,96865.22
2022-11-26T18:30:58.267Z,96869.41
2022-11-26T18:33:26.921Z,96867.13
2022-11-26T18:35:54.575Z,96870.03
2022-11-26T18:38:22.321Z,96876.91
2022-11-26T18:41:02.124Z,96880.88
2022-11-26T18:43:29.810Z,96877.31
2022-11-26T18:45:57.913Z,96876.50
2022-11-26T18:48:25.607Z,96873.78
2022-11-26T18:50:57.313Z,96876.78
2022-11-26T18:53:25.919Z,96872.91
2022-11-26T18:55:54.001Z,96875.63
2022-11-26T18:58:24.148Z,96880.00
2022-11-26T19:00:54.142Z,96873.78
2022-11-26T19:03:22.378Z,96881.69
2022-11-26T19:05:51.775Z,96879.63
2022-11-26T19:08:20.105Z,96875.97
2022-11-26T19:10:47.993Z,96876.91
2022-11-26T19:13:16.628Z,96877.63
2022-11-26T19:15:46.831Z,96867.13
2022-11-26T19:18:15.327Z,96871.38
2022-11-26T19:20:49.583Z,96862.75
2022-11-26T19:23:17.670Z,96874.06
2022-11-26T19:25:45.663Z,96874.72
2022-11-26T19:28:13.632Z,96874.00
2022-11-26T19:30:41.355Z,96871.91
2022-11-26T19:33:11.310Z,96877.75
2022-11-26T19:35:39.720Z,96875.34
2022-11-26T19:38:07.639Z,96872.94
2022-11-26T19:40:35.428Z,96873.78
2022-11-26T19:43:03.244Z,96872.44
2022-11-26T19:45:30.950Z,96868.38
2022-11-26T19:47:58.955Z,96870.56
2022-11-26T19:50:27.972Z,96867.75
2022-11-26T19:52:56.126Z,96867.25
2022-11-26T19:55:23.980Z,96868.97
2022-11-26T19:57:52.140Z,96862.94
2022-11-26T20:00:20.264Z,96853.16
2022-11-26T20:02:48.351Z,96861.91
2022-11-26T20:05:16.789Z,96849.00
2022-11-26T20:07:46.182Z,96861.09
2022-11-26T20:10:15.936Z,96859.59
2022-11-26T20:12:43.588Z,96854.63
2022-11-26T20:15:12.448Z,96857.94
2022-11-26T20:17:40.105Z,96849.41
2022-11-26T20:20:09.693Z,96849.81
2022-11-26T20:22:37.618Z,96848.38
2022-11-26T20:25:09.511Z,96844.00
2022-11-26T20:27:37.192Z,96843.34
2022-11-26T20:30:06.052Z,96845.44
2022-11-26T20:32:33.775Z,96837.94
2022-11-26T20:35:02.112Z,96841.06
2022-11-26T20:37:29.757Z,96835.00
2022-11-26T20:39:58.165Z,96818.94
2022-11-26T20:42:27.237Z,96830.94
2022-11-26T20:44:55.336Z,96827.50
2022-11-26T20:47:23.886Z,96818.53
2022-11-26T20:49:51.558Z,96819.16
2022-11-26T20:52:21.409Z,96827.06
2022-11-26T20:54:53.509Z,96817.84
2022-11-26T20:57:23.325Z,96829.38
2022-11-26T20:59:52.374Z,96819.91
2022-11-26T21:02:20.182Z,96815.41
2022-11-26T21:04:48.186Z,96821.13
2022-11-26T21:07:16.145Z,96816.88
2022-11-26T21:09:46.526Z,96823.22
2022-11-26T21:12:14.729Z,96821.00
2022-11-26T21:14:42.797Z,96825.91
2022-11-26T21:17:13.513Z,96815.59
2022-11-26T21:19:41.842Z,96819.69
2022-11-26T21:22:09.683Z,96825.59
2022-11-26T21:24:38.403Z,96815.94
2022-11-26T21:27:06.225Z,96813.53
2022-11-26T21:29:34.596Z,96810.72
2022-11-26T21:32:02.255Z,96808.63
2022-11-26T21:34:32.000Z,96812.38
2022-11-26T21:36:59.693Z,96812.34
2022-11-26T21:39:28.191Z,96813.34
2022-11-26T21:41:55.849Z,96802.59
2022-11-26T21:44:24.175Z,96794.38
2022-11-26T21:46:51.879Z,96792.00
2022-11-26T21:49:19.870Z,96784.16
2022-11-26T21:51:48.918Z,96786.81
2022-11-26T21:54:16.579Z,96789.72
2022-11-26T21:56:44.263Z,96788.78
2022-11-26T21:59:11.971Z,96792.00
2022-11-26T22:01:40.526Z,96795.19
2022-11-26T22:04:14.404Z,96800.31
2022-11-26T22:06:43.748Z,96800.78
2022-11-26T22:09:13.664Z,96807.84
2022-11-26T22:11:43.639Z,96807.13
2022-11-26T22:14:14.226Z,96804.63
2022-11-26T22:16:42.846Z,96811.28
2022-11-26T22:19:11.015Z,96808.53
2022-11-26T22:21:41.028Z,96799.59
2022-11-26T22:24:11.904Z,96807.84
2022-11-26T22:26:41.206Z,96815.16
2022-11-26T22:29:08.986Z,96820.06
2022-11-26T22:31:38.627Z,96820.16
2022-11-26T22:34:08.381Z,96827.97
2022-11-26T22:36:36.140Z,96833.06
2022-11-26T22:39:06.162Z,96825.16
2022-11-26T22:41:34.104Z,96821.94
2022-11-26T22:44:03.108Z,96829.09
2022-11-26T22:46:31.220Z,96834.28
2022-11-26T22:49:00.519Z,96830.66
2022-11-26T22:51:29.975Z,96837.41
2022-11-26T22:53:59.008Z,96837.25
2022-11-26T22:56:27.754Z,96830.81
2022-11-26T22:58:55.529Z,96830.34
2022-11-26T23:01:27.292Z,96823.06
2022-11-26T23:03:56.347Z,96822.22
2022-11-26T23:06:26.390Z,96818.88
2022-11-26T23:08:55.400Z,96815.34
2022-11-26T23:11:25.877Z,96817.78
2022-11-26T23:13:54.020Z,96826.88
2022-11-26T23:16:24.561Z,96813.31
2022-11-26T23:18:55.286Z,96811.38
2022-11-26T23:21:25.214Z,96821.28
2022-11-26T23:23:53.432Z,96814.97
2022-11-26T23:26:26.733Z,96811.97
2022-11-26T23:28:55.842Z,96823.75
2022-11-26T23:31:26.986Z,96817.72
2022-11-26T23:33:56.245Z,96803.78
2022-11-26T23:36:25.033Z,96797.75
2022-11-26T23:38:52.990Z,96790.78
2022-11-26T23:41:20.755Z,96788.16
2022-11-26T23:43:48.701Z,96788.16
2022-11-26T23:46:18.530Z,96791.09
2022-11-26T23:48:46.469Z,96781.72
2022-11-26T23:51:18.776Z,96787.66
2022-11-26T23:53:48.211Z,96787.75
2022-11-26T23:56:18.713Z,96775.19
2022-11-26T23:58:49.460Z,96788.81
